sensor_id;sensor_type;location;lat;lon;timestamp;temperature;humidity
39345;DHT22;25061;51.954;6.996;2022-12-19T00:01:48;0.40;99.90
39345;DHT22;25061;51.954;6.996;2022-12-19T00:04:13;0.30;99.90
39345;DHT22;25061;51.954;6.996;2022-12-19T00:06:40;0.40;99.90
39345;DHT22;25061;51.954;6.996;2022-12-19T00:09:06;0.40;99.90
39345;DHT22;25061;51.954;6.996;2022-12-19T00:11:32;0.30;99.90
39345;DHT22;25061;51.954;6.996;2022-12-19T00:13:58;0.50;99.90
39345;DHT22;25061;51.954;6.996;2022-12-19T00:16:26;0.40;99.90
39345;DHT22;25061;51.954;6.996;2022-12-19T00:18:54;0.40;99.90
39345;DHT22;25061;51.954;6.996;2022-12-19T00:21:22;0.40;99.90
39345;DHT22;25061;51.954;6.996;2022-12-19T00:23:48;0.40;99.90
39345;DHT22;25061;51.954;6.996;2022-12-19T00:26:18;0.40;99.90
39345;DHT22;25061;51.954;6.996;2022-12-19T00:28:47;0.50;99.90
39345;DHT22;25061;51.954;6.996;2022-12-19T00:31:14;0.50;99.90
39345;DHT22;25061;51.954;6.996;2022-12-19T00:33:40;0.60;99.90
39345;DHT22;25061;51.954;6.996;2022-12-19T00:36:10;0.50;99.90
39345;DHT22;25061;51.954;6.996;2022-12-19T00:38:35;0.50;99.90
39345;DHT22;25061;51.954;6.996;2022-12-19T00:41:25;0.60;99.90
39345;DHT22;25061;51.954;6.996;2022-12-19T00:43:59;0.50;99.90
39345;DHT22;25061;51.954;6.996;2022-12-19T00:46:26;0.60;99.90
39345;DHT22;25061;51.954;6.996;2022-12-19T00:48:52;0.70;99.90
39345;DHT22;25061;51.954;6.996;2022-12-19T00:51:20;0.60;99.90
39345;DHT22;25061;51.954;6.996;2022-12-19T00:53:47;0.60;99.90
39345;DHT22;25061;51.954;6.996;2022-12-19T00:56:15;0.60;99.90
39345;DHT22;25061;51.954;6.996;2022-12-19T00:58:41;0.70;99.90
39345;DHT22;25061;51.954;6.996;2022-12-19T01:01:10;0.80;99.90
39345;DHT22;25061;51.954;6.996;2022-12-19T01:03:36;0.80;99.90
39345;DHT22;25061;51.954;6.996;2022-12-19T01:06:02;0.70;99.90
39345;DHT22;25061;51.954;6.996;2022-12-19T01:08:28;0.90;99.90
39345;DHT22;25061;51.954;6.996;2022-12-19T01:10:53;0.90;99.90
39345;DHT22;25061;51.954;6.996;2022-12-19T01:13:20;0.90;99.90
39345;DHT22;25061;51.954;6.996;2022-12-19T01:15:46;0.90;99.90
39345;DHT22;25061;51.954;6.996;2022-12-19T01:18:12;1.10;99.90
39345;DHT22;25061;51.954;6.996;2022-12-19T01:20:43;1.00;99.90
39345;DHT22;25061;51.954;6.996;2022-12-19T01:23:11;1.00;99.90
39345;DHT22;25061;51.954;6.996;2022-12-19T01:25:39;1.10;99.90
39345;DHT22;25061;51.954;6.996;2022-12-19T01:28:06;1.00;99.90
39345;DHT22;25061;51.954;6.996;2022-12-19T01:30:32;1.20;99.90
39345;DHT22;25061;51.954;6.996;2022-12-19T01:32:58;1.10;99.90
39345;DHT22;25061;51.954;6.996;2022-12-19T01:35:25;1.20;99.90
39345;DHT22;25061;51.954;6.996;2022-12-19T01:37:51;1.10;99.90
39345;DHT22;25061;51.954;6.996;2022-12-19T01:40:18;1.20;99.90
39345;DHT22;25061;51.954;6.996;2022-12-19T01:42:43;1.30;99.90
39345;DHT22;25061;51.954;6.996;2022-12-19T01:47:47;1.40;99.90
39345;DHT22;25061;51.954;6.996;2022-12-19T01:50:18;1.30;99.90
39345;DHT22;25061;51.954;6.996;2022-12-19T01:52:45;1.40;99.90
39345;DHT22;25061;51.954;6.996;2022-12-19T01:55:12;1.40;99.90
39345;DHT22;25061;51.954;6.996;2022-12-19T01:57:38;1.30;99.90
39345;DHT22;25061;51.954;6.996;2022-12-19T02:00:06;1.30;99.90
39345;DHT22;25061;51.954;6.996;2022-12-19T02:02:42;1.60;99.90
39345;DHT22;25061;51.954;6.996;2022-12-19T02:05:09;1.60;99.90
39345;DHT22;25061;51.954;6.996;2022-12-19T02:07:35;1.60;99.90
39345;DHT22;25061;51.954;6.996;2022-12-19T02:10:02;1.70;99.90
39345;DHT22;25061;51.954;6.996;2022-12-19T02:12:30;1.60;99.90
39345;DHT22;25061;51.954;6.996;2022-12-19T02:14:58;1.60;99.90
39345;DHT22;25061;51.954;6.996;2022-12-19T02:17:51;1.70;99.90
39345;DHT22;25061;51.954;6.996;2022-12-19T02:23:32;1.90;99.90
39345;DHT22;25061;51.954;6.996;2022-12-19T02:32:03;2.10;99.90
39345;DHT22;25061;51.954;6.996;2022-12-19T02:34:37;2.00;99.90
39345;DHT22;25061;51.954;6.996;2022-12-19T02:37:27;2.10;99.90
39345;DHT22;25061;51.954;6.996;2022-12-19T02:39:55;1.90;99.90
39345;DHT22;25061;51.954;6.996;2022-12-19T02:42:34;2.20;99.90
39345;DHT22;25061;51.954;6.996;2022-12-19T02:45:04;1.90;99.90
39345;DHT22;25061;51.954;6.996;2022-12-19T02:47:31;1.90;99.90
39345;DHT22;25061;51.954;6.996;2022-12-19T02:49:57;2.20;99.90
39345;DHT22;25061;51.954;6.996;2022-12-19T02:54:54;2.20;99.90
39345;DHT22;25061;51.954;6.996;2022-12-19T02:57:39;1.90;99.90
39345;DHT22;25061;51.954;6.996;2022-12-19T03:00:09;1.90;99.90
39345;DHT22;25061;51.954;6.996;2022-12-19T03:05:22;2.10;99.90
39345;DHT22;25061;51.954;6.996;2022-12-19T03:08:06;2.00;99.90
39345;DHT22;25061;51.954;6.996;2022-12-19T03:10:59;2.00;99.90
39345;DHT22;25061;51.954;6.996;2022-12-19T03:13:33;2.30;99.90
39345;DHT22;25061;51.954;6.996;2022-12-19T03:16:01;2.10;99.90
39345;DHT22;25061;51.954;6.996;2022-12-19T03:18:27;2.40;99.90
39345;DHT22;25061;51.954;6.996;2022-12-19T03:23:47;2.40;99.90
39345;DHT22;25061;51.954;6.996;2022-12-19T03:26:19;2.40;99.90
39345;DHT22;25061;51.954;6.996;2022-12-19T03:28:49;2.50;99.90
39345;DHT22;25061;51.954;6.996;2022-12-19T03:31:19;2.40;99.90
39345;DHT22;25061;51.954;6.996;2022-12-19T03:33:48;2.70;99.90
39345;DHT22;25061;51.954;6.996;2022-12-19T03:36:18;2.80;99.90
39345;DHT22;25061;51.954;6.996;2022-12-19T03:38:46;2.80;99.90
39345;DHT22;25061;51.954;6.996;2022-12-19T03:41:14;2.90;99.90
39345;DHT22;25061;51.954;6.996;2022-12-19T03:44:02;3.00;99.90
39345;DHT22;25061;51.954;6.996;2022-12-19T03:46:28;2.80;99.90
39345;DHT22;25061;51.954;6.996;2022-12-19T03:48:54;3.00;99.90
39345;DHT22;25061;51.954;6.996;2022-12-19T03:51:39;3.00;99.90
39345;DHT22;25061;51.954;6.996;2022-12-19T03:54:15;2.90;99.90
39345;DHT22;25061;51.954;6.996;2022-12-19T04:02:21;3.00;99.90
39345;DHT22;25061;51.954;6.996;2022-12-19T04:04:53;3.10;99.90
39345;DHT22;25061;51.954;6.996;2022-12-19T04:07:20;3.10;99.90
39345;DHT22;25061;51.954;6.996;2022-12-19T04:09:48;3.20;99.90
39345;DHT22;25061;51.954;6.996;2022-12-19T04:12:20;3.00;99.90
39345;DHT22;25061;51.954;6.996;2022-12-19T04:14:48;3.20;99.90
39345;DHT22;25061;51.954;6.996;2022-12-19T04:20:13;3.10;99.90
39345;DHT22;25061;51.954;6.996;2022-12-19T04:25:15;3.30;99.90
39345;DHT22;25061;51.954;6.996;2022-12-19T04:27:45;3.20;99.90
39345;DHT22;25061;51.954;6.996;2022-12-19T04:30:15;3.30;99.90
39345;DHT22;25061;51.954;6.996;2022-12-19T04:32:41;3.20;99.90
39345;DHT22;25061;51.954;6.996;2022-12-19T04:35:07;3.30;99.90
39345;DHT22;25061;51.954;6.996;2022-12-19T04:37:33;3.20;99.90
39345;DHT22;25061;51.954;6.996;2022-12-19T04:39:59;3.40;99.90
39345;DHT22;25061;51.954;6.996;2022-12-19T04:42:25;3.30;99.90
39345;DHT22;25061;51.954;6.996;2022-12-19T04:44:50;3.40;99.90
39345;DHT22;25061;51.954;6.996;2022-12-19T04:47:16;3.20;99.90
39345;DHT22;25061;51.954;6.996;2022-12-19T04:49:42;3.40;99.90
39345;DHT22;25061;51.954;6.996;2022-12-19T04:52:07;3.40;99.90
39345;DHT22;25061;51.954;6.996;2022-12-19T04:54:33;3.50;99.90
39345;DHT22;25061;51.954;6.996;2022-12-19T04:56:58;3.40;99.90
39345;DHT22;25061;51.954;6.996;2022-12-19T04:59:24;3.40;99.90
39345;DHT22;25061;51.954;6.996;2022-12-19T05:01:50;3.50;99.90
39345;DHT22;25061;51.954;6.996;2022-12-19T05:04:16;3.60;99.90
39345;DHT22;25061;51.954;6.996;2022-12-19T05:06:41;3.80;99.90
39345;DHT22;25061;51.954;6.996;2022-12-19T05:09:09;3.60;99.90
39345;DHT22;25061;51.954;6.996;2022-12-19T05:11:35;3.70;99.90
39345;DHT22;25061;51.954;6.996;2022-12-19T05:14:00;3.80;99.90
39345;DHT22;25061;51.954;6.996;2022-12-19T05:16:26;3.80;99.90
39345;DHT22;25061;51.954;6.996;2022-12-19T05:18:52;3.80;99.90
39345;DHT22;25061;51.954;6.996;2022-12-19T05:21:18;3.70;99.90
39345;DHT22;25061;51.954;6.996;2022-12-19T05:23:43;3.70;99.90
39345;DHT22;25061;51.954;6.996;2022-12-19T05:26:10;3.90;99.90
39345;DHT22;25061;51.954;6.996;2022-12-19T05:28:35;3.90;99.90
39345;DHT22;25061;51.954;6.996;2022-12-19T05:31:13;3.90;99.90
39345;DHT22;25061;51.954;6.996;2022-12-19T05:33:40;3.80;99.90
39345;DHT22;25061;51.954;6.996;2022-12-19T05:36:09;4.00;99.90
39345;DHT22;25061;51.954;6.996;2022-12-19T05:38:36;3.80;99.90
39345;DHT22;25061;51.954;6.996;2022-12-19T05:41:16;4.10;99.90
39345;DHT22;25061;51.954;6.996;2022-12-19T05:43:43;4.10;99.90
39345;DHT22;25061;51.954;6.996;2022-12-19T05:46:09;4.20;99.90
39345;DHT22;25061;51.954;6.996;2022-12-19T05:48:35;3.90;99.90
39345;DHT22;25061;51.954;6.996;2022-12-19T05:51:00;3.80;99.90
39345;DHT22;25061;51.954;6.996;2022-12-19T05:53:26;3.90;99.90
39345;DHT22;25061;51.954;6.996;2022-12-19T05:56:05;3.90;99.90
39345;DHT22;25061;51.954;6.996;2022-12-19T05:58:31;4.10;99.90
39345;DHT22;25061;51.954;6.996;2022-12-19T06:01:26;4.20;99.90
39345;DHT22;25061;51.954;6.996;2022-12-19T06:03:53;4.00;99.90
39345;DHT22;25061;51.954;6.996;2022-12-19T06:06:22;4.50;99.90
39345;DHT22;25061;51.954;6.996;2022-12-19T06:08:53;4.20;99.90
39345;DHT22;25061;51.954;6.996;2022-12-19T06:11:19;4.50;99.90
39345;DHT22;25061;51.954;6.996;2022-12-19T06:13:45;4.60;99.90
39345;DHT22;25061;51.954;6.996;2022-12-19T06:16:16;4.40;99.90
39345;DHT22;25061;51.954;6.996;2022-12-19T06:18:43;4.70;99.90
39345;DHT22;25061;51.954;6.996;2022-12-19T06:21:17;4.70;99.90
39345;DHT22;25061;51.954;6.996;2022-12-19T06:23:44;4.80;99.90
39345;DHT22;25061;51.954;6.996;2022-12-19T06:26:12;4.80;99.90
39345;DHT22;25061;51.954;6.996;2022-12-19T06:28:38;4.40;99.90
39345;DHT22;25061;51.954;6.996;2022-12-19T06:31:04;4.90;99.90
39345;DHT22;25061;51.954;6.996;2022-12-19T06:33:31;4.30;99.90
39345;DHT22;25061;51.954;6.996;2022-12-19T06:36:11;4.50;99.90
39345;DHT22;25061;51.954;6.996;2022-12-19T06:38:37;4.60;99.90
39345;DHT22;25061;51.954;6.996;2022-12-19T06:41:03;4.90;99.90
39345;DHT22;25061;51.954;6.996;2022-12-19T06:43:47;4.70;99.90
39345;DHT22;25061;51.954;6.996;2022-12-19T06:46:12;5.00;99.90
39345;DHT22;25061;51.954;6.996;2022-12-19T06:48:38;4.40;99.90
39345;DHT22;25061;51.954;6.996;2022-12-19T06:51:04;5.00;99.90
39345;DHT22;25061;51.954;6.996;2022-12-19T06:53:29;4.50;99.90
39345;DHT22;25061;51.954;6.996;2022-12-19T06:55:56;4.50;99.90
39345;DHT22;25061;51.954;6.996;2022-12-19T06:58:22;4.70;99.90
39345;DHT22;25061;51.954;6.996;2022-12-19T07:00:48;4.70;99.90
39345;DHT22;25061;51.954;6.996;2022-12-19T07:03:18;4.80;99.90
39345;DHT22;25061;51.954;6.996;2022-12-19T07:05:46;4.90;99.90
39345;DHT22;25061;51.954;6.996;2022-12-19T07:08:12;4.80;99.90
39345;DHT22;25061;51.954;6.996;2022-12-19T07:10:38;5.30;99.90
39345;DHT22;25061;51.954;6.996;2022-12-19T07:13:03;5.40;99.90
39345;DHT22;25061;51.954;6.996;2022-12-19T07:15:31;4.90;99.90
39345;DHT22;25061;51.954;6.996;2022-12-19T07:17:59;5.50;99.90
39345;DHT22;25061;51.954;6.996;2022-12-19T07:20:25;5.00;99.90
39345;DHT22;25061;51.954;6.996;2022-12-19T07:22:52;5.00;99.90
39345;DHT22;25061;51.954;6.996;2022-12-19T07:25:18;5.60;99.90
39345;DHT22;25061;51.954;6.996;2022-12-19T07:27:44;5.60;99.90
39345;DHT22;25061;51.954;6.996;2022-12-19T07:30:10;5.40;99.90
39345;DHT22;25061;51.954;6.996;2022-12-19T07:32:36;5.60;99.90
39345;DHT22;25061;51.954;6.996;2022-12-19T07:35:04;5.10;99.90
39345;DHT22;25061;51.954;6.996;2022-12-19T07:37:30;5.70;99.90
39345;DHT22;25061;51.954;6.996;2022-12-19T07:39:55;5.80;99.90
39345;DHT22;25061;51.954;6.996;2022-12-19T07:42:21;5.80;99.90
39345;DHT22;25061;51.954;6.996;2022-12-19T07:44:46;5.80;99.90
39345;DHT22;25061;51.954;6.996;2022-12-19T07:47:12;5.60;99.90
39345;DHT22;25061;51.954;6.996;2022-12-19T07:49:38;5.50;99.90
39345;DHT22;25061;51.954;6.996;2022-12-19T07:52:03;5.70;99.90
39345;DHT22;25061;51.954;6.996;2022-12-19T07:54:29;5.90;99.90
39345;DHT22;25061;51.954;6.996;2022-12-19T07:56:54;5.30;99.90
39345;DHT22;25061;51.954;6.996;2022-12-19T07:59:20;5.90;99.90
39345;DHT22;25061;51.954;6.996;2022-12-19T08:01:46;5.50;99.90
39345;DHT22;25061;51.954;6.996;2022-12-19T08:04:12;6.00;99.90
39345;DHT22;25061;51.954;6.996;2022-12-19T08:06:37;5.90;99.90
39345;DHT22;25061;51.954;6.996;2022-12-19T08:09:03;5.40;99.90
39345;DHT22;25061;51.954;6.996;2022-12-19T08:11:29;5.40;99.90
39345;DHT22;25061;51.954;6.996;2022-12-19T08:13:56;5.50;99.90
39345;DHT22;25061;51.954;6.996;2022-12-19T08:16:23;5.40;99.90
39345;DHT22;25061;51.954;6.996;2022-12-19T08:18:49;6.00;99.90
39345;DHT22;25061;51.954;6.996;2022-12-19T08:21:14;5.80;99.90
39345;DHT22;25061;51.954;6.996;2022-12-19T08:23:40;6.00;99.90
39345;DHT22;25061;51.954;6.996;2022-12-19T08:26:10;6.10;99.90
39345;DHT22;25061;51.954;6.996;2022-12-19T08:28:36;5.60;99.90
39345;DHT22;25061;51.954;6.996;2022-12-19T08:31:06;5.50;99.90
39345;DHT22;25061;51.954;6.996;2022-12-19T08:33:32;5.80;99.90
39345;DHT22;25061;51.954;6.996;2022-12-19T08:35:57;5.70;99.90
39345;DHT22;25061;51.954;6.996;2022-12-19T08:38:23;6.00;99.90
39345;DHT22;25061;51.954;6.996;2022-12-19T08:40:52;6.10;99.90
39345;DHT22;25061;51.954;6.996;2022-12-19T08:43:19;5.60;99.90
39345;DHT22;25061;51.954;6.996;2022-12-19T08:45:49;6.20;99.90
39345;DHT22;25061;51.954;6.996;2022-12-19T08:48:15;6.20;99.90
39345;DHT22;25061;51.954;6.996;2022-12-19T08:50:51;6.30;99.90
39345;DHT22;25061;51.954;6.996;2022-12-19T08:53:17;6.00;99.90
39345;DHT22;25061;51.954;6.996;2022-12-19T08:55:43;6.00;99.90
39345;DHT22;25061;51.954;6.996;2022-12-19T08:58:09;5.80;99.90
39345;DHT22;25061;51.954;6.996;2022-12-19T09:00:34;5.80;99.90
39345;DHT22;25061;51.954;6.996;2022-12-19T09:03:00;6.30;99.90
39345;DHT22;25061;51.954;6.996;2022-12-19T09:05:26;5.90;99.90
39345;DHT22;25061;51.954;6.996;2022-12-19T09:07:51;5.90;99.90
39345;DHT22;25061;51.954;6.996;2022-12-19T09:10:17;6.30;99.90
39345;DHT22;25061;51.954;6.996;2022-12-19T09:12:44;6.30;99.90
39345;DHT22;25061;51.954;6.996;2022-12-19T09:15:09;6.00;99.90
39345;DHT22;25061;51.954;6.996;2022-12-19T09:17:35;6.40;99.90
39345;DHT22;25061;51.954;6.996;2022-12-19T09:20:01;6.30;99.90
39345;DHT22;25061;51.954;6.996;2022-12-19T09:22:26;6.00;99.90
39345;DHT22;25061;51.954;6.996;2022-12-19T09:24:52;6.30;99.90
39345;DHT22;25061;51.954;6.996;2022-12-19T09:27:17;6.10;99.90
39345;DHT22;25061;51.954;6.996;2022-12-19T09:29:43;6.10;99.90
39345;DHT22;25061;51.954;6.996;2022-12-19T09:32:08;6.10;99.90
39345;DHT22;25061;51.954;6.996;2022-12-19T09:34:34;6.20;99.90
39345;DHT22;25061;51.954;6.996;2022-12-19T09:37:00;6.50;99.90
39345;DHT22;25061;51.954;6.996;2022-12-19T09:39:26;6.20;99.90
39345;DHT22;25061;51.954;6.996;2022-12-19T09:47:17;6.30;99.90
39345;DHT22;25061;51.954;6.996;2022-12-19T09:49:44;6.30;99.90
39345;DHT22;25061;51.954;6.996;2022-12-19T09:52:32;6.30;99.90
39345;DHT22;25061;51.954;6.996;2022-12-19T09:55:11;6.50;99.90
39345;DHT22;25061;51.954;6.996;2022-12-19T09:57:51;6.60;99.90
39345;DHT22;25061;51.954;6.996;2022-12-19T10:00:21;6.40;99.90
39345;DHT22;25061;51.954;6.996;2022-12-19T10:05:51;6.60;99.90
39345;DHT22;25061;51.954;6.996;2022-12-19T10:08:35;6.60;99.90
39345;DHT22;25061;51.954;6.996;2022-12-19T10:16:56;6.70;99.90
39345;DHT22;25061;51.954;6.996;2022-12-19T10:22:30;6.80;99.90
39345;DHT22;25061;51.954;6.996;2022-12-19T10:28:00;6.60;99.90
39345;DHT22;25061;51.954;6.996;2022-12-19T10:30:32;6.90;99.90
39345;DHT22;25061;51.954;6.996;2022-12-19T10:33:31;6.90;99.90
39345;DHT22;25061;51.954;6.996;2022-12-19T10:36:00;7.00;99.90
39345;DHT22;25061;51.954;6.996;2022-12-19T10:38:44;6.80;99.90
39345;DHT22;25061;51.954;6.996;2022-12-19T10:41:27;6.70;99.90
39345;DHT22;25061;51.954;6.996;2022-12-19T10:44:00;6.90;99.90
39345;DHT22;25061;51.954;6.996;2022-12-19T10:46:43;6.90;99.90
39345;DHT22;25061;51.954;6.996;2022-12-19T10:49:18;6.70;99.90
39345;DHT22;25061;51.954;6.996;2022-12-19T10:52:02;6.90;99.90
39345;DHT22;25061;51.954;6.996;2022-12-19T10:59:58;7.00;99.90
39345;DHT22;25061;51.954;6.996;2022-12-19T11:02:43;6.80;99.90
39345;DHT22;25061;51.954;6.996;2022-12-19T11:05:24;6.90;99.90
39345;DHT22;25061;51.954;6.996;2022-12-19T11:10:49;7.00;99.90
39345;DHT22;25061;51.954;6.996;2022-12-19T11:16:03;7.10;99.90
39345;DHT22;25061;51.954;6.996;2022-12-19T11:18:47;7.10;99.90
39345;DHT22;25061;51.954;6.996;2022-12-19T11:21:19;7.10;99.90
39345;DHT22;25061;51.954;6.996;2022-12-19T11:28:55;7.10;99.90
39345;DHT22;25061;51.954;6.996;2022-12-19T11:31:24;7.10;99.90
39345;DHT22;25061;51.954;6.996;2022-12-19T11:34:04;7.00;99.90
39345;DHT22;25061;51.954;6.996;2022-12-19T11:36:51;7.10;99.90
39345;DHT22;25061;51.954;6.996;2022-12-19T11:39:32;7.10;99.90
39345;DHT22;25061;51.954;6.996;2022-12-19T11:45:14;7.30;99.90
39345;DHT22;25061;51.954;6.996;2022-12-19T11:47:59;7.30;99.90
39345;DHT22;25061;51.954;6.996;2022-12-19T11:50:28;7.10;99.90
39345;DHT22;25061;51.954;6.996;2022-12-19T11:53:03;7.20;99.90
39345;DHT22;25061;51.954;6.996;2022-12-19T11:55:51;7.40;99.90
39345;DHT22;25061;51.954;6.996;2022-12-19T11:58:18;7.30;99.90
39345;DHT22;25061;51.954;6.996;2022-12-19T12:04:00;7.40;99.90
39345;DHT22;25061;51.954;6.996;2022-12-19T12:06:35;7.30;99.90
39345;DHT22;25061;51.954;6.996;2022-12-19T12:12:19;7.40;99.90
39345;DHT22;25061;51.954;6.996;2022-12-19T12:14:51;7.40;99.90
39345;DHT22;25061;51.954;6.996;2022-12-19T12:27:59;7.50;99.90
39345;DHT22;25061;51.954;6.996;2022-12-19T12:30:28;7.30;99.90
39345;DHT22;25061;51.954;6.996;2022-12-19T12:33:05;7.40;99.90
39345;DHT22;25061;51.954;6.996;2022-12-19T12:35:44;7.40;99.90
39345;DHT22;25061;51.954;6.996;2022-12-19T12:44:07;7.50;99.90
39345;DHT22;25061;51.954;6.996;2022-12-19T12:46:38;7.60;99.90
39345;DHT22;25061;51.954;6.996;2022-12-19T12:49:33;7.70;99.90
39345;DHT22;25061;51.954;6.996;2022-12-19T12:52:02;7.70;99.90
39345;DHT22;25061;51.954;6.996;2022-12-19T12:54:33;7.70;99.90
39345;DHT22;25061;51.954;6.996;2022-12-19T12:57:01;7.70;99.90
39345;DHT22;25061;51.954;6.996;2022-12-19T12:59:28;7.70;99.90
39345;DHT22;25061;51.954;6.996;2022-12-19T13:02:12;7.70;99.90
39345;DHT22;25061;51.954;6.996;2022-12-19T13:04:56;7.70;99.90
39345;DHT22;25061;51.954;6.996;2022-12-19T13:07:44;7.70;99.90
39345;DHT22;25061;51.954;6.996;2022-12-19T13:10:28;7.80;99.90
39345;DHT22;25061;51.954;6.996;2022-12-19T13:25:46;7.90;99.90
39345;DHT22;25061;51.954;6.996;2022-12-19T13:39:30;7.90;99.90
39345;DHT22;25061;51.954;6.996;2022-12-19T13:42:04;7.90;99.90
39345;DHT22;25061;51.954;6.996;2022-12-19T13:44:52;7.90;99.90
39345;DHT22;25061;51.954;6.996;2022-12-19T13:47:20;7.90;99.90
39345;DHT22;25061;51.954;6.996;2022-12-19T13:49:46;8.00;99.90
39345;DHT22;25061;51.954;6.996;2022-12-19T13:52:12;8.00;99.90
39345;DHT22;25061;51.954;6.996;2022-12-19T13:54:49;8.10;99.90
39345;DHT22;25061;51.954;6.996;2022-12-19T13:57:27;8.20;99.90
39345;DHT22;25061;51.954;6.996;2022-12-19T13:59:57;8.20;99.90
39345;DHT22;25061;51.954;6.996;2022-12-19T14:02:33;8.20;99.90
39345;DHT22;25061;51.954;6.996;2022-12-19T14:05:00;8.30;99.90
39345;DHT22;25061;51.954;6.996;2022-12-19T14:07:36;8.20;99.90
39345;DHT22;25061;51.954;6.996;2022-12-19T14:10:05;8.30;99.90
39345;DHT22;25061;51.954;6.996;2022-12-19T14:12:38;8.20;99.90
39345;DHT22;25061;51.954;6.996;2022-12-19T14:15:35;8.40;99.90
39345;DHT22;25061;51.954;6.996;2022-12-19T14:18:19;8.40;99.90
39345;DHT22;25061;51.954;6.996;2022-12-19T14:20:45;8.40;99.90
39345;DHT22;25061;51.954;6.996;2022-12-19T14:23:11;8.30;99.90
39345;DHT22;25061;51.954;6.996;2022-12-19T14:26:37;8.30;99.90
39345;DHT22;25061;51.954;6.996;2022-12-19T14:28:53;8.30;99.90
39345;DHT22;25061;51.954;6.996;2022-12-19T14:31:25;8.30;99.90
39345;DHT22;25061;51.954;6.996;2022-12-19T14:33:52;8.30;99.90
39345;DHT22;25061;51.954;6.996;2022-12-19T14:36:22;8.30;99.90
39345;DHT22;25061;51.954;6.996;2022-12-19T14:38:49;8.30;99.90
39345;DHT22;25061;51.954;6.996;2022-12-19T14:44:15;8.40;99.90
39345;DHT22;25061;51.954;6.996;2022-12-19T14:46:42;8.30;99.90
39345;DHT22;25061;51.954;6.996;2022-12-19T14:49:31;8.30;99.90
39345;DHT22;25061;51.954;6.996;2022-12-19T14:51:57;8.40;99.90
39345;DHT22;25061;51.954;6.996;2022-12-19T14:54:23;8.40;99.90
39345;DHT22;25061;51.954;6.996;2022-12-19T14:57:02;8.40;99.90
39345;DHT22;25061;51.954;6.996;2022-12-19T15:02:01;8.50;99.90
39345;DHT22;25061;51.954;6.996;2022-12-19T15:04:32;8.40;99.90
39345;DHT22;25061;51.954;6.996;2022-12-19T15:07:01;8.40;99.90
39345;DHT22;25061;51.954;6.996;2022-12-19T15:09:27;8.50;99.90
39345;DHT22;25061;51.954;6.996;2022-12-19T15:11:57;8.40;99.90
39345;DHT22;25061;51.954;6.996;2022-12-19T15:14:46;8.40;99.90
39345;DHT22;25061;51.954;6.996;2022-12-19T15:17:20;8.40;99.90
39345;DHT22;25061;51.954;6.996;2022-12-19T15:19:49;8.30;99.90
39345;DHT22;25061;51.954;6.996;2022-12-19T15:22:15;8.50;99.90
39345;DHT22;25061;51.954;6.996;2022-12-19T15:24:41;8.50;99.90
39345;DHT22;25061;51.954;6.996;2022-12-19T15:27:15;8.40;99.90
39345;DHT22;25061;51.954;6.996;2022-12-19T15:29:41;8.40;99.90
39345;DHT22;25061;51.954;6.996;2022-12-19T15:32:14;8.50;99.90
39345;DHT22;25061;51.954;6.996;2022-12-19T15:34:41;8.50;99.90
39345;DHT22;25061;51.954;6.996;2022-12-19T15:37:11;8.40;99.90
39345;DHT22;25061;51.954;6.996;2022-12-19T15:39:37;8.60;99.90
39345;DHT22;25061;51.954;6.996;2022-12-19T15:42:03;8.60;99.90
39345;DHT22;25061;51.954;6.996;2022-12-19T15:44:37;8.60;99.90
39345;DHT22;25061;51.954;6.996;2022-12-19T15:47:05;8.50;99.90
39345;DHT22;25061;51.954;6.996;2022-12-19T15:49:31;8.50;99.90
39345;DHT22;25061;51.954;6.996;2022-12-19T15:51:59;8.60;99.90
39345;DHT22;25061;51.954;6.996;2022-12-19T15:54:25;8.40;99.90
39345;DHT22;25061;51.954;6.996;2022-12-19T15:56:52;8.50;99.90
39345;DHT22;25061;51.954;6.996;2022-12-19T15:59:26;8.50;99.90
39345;DHT22;25061;51.954;6.996;2022-12-19T16:01:53;8.60;99.90
39345;DHT22;25061;51.954;6.996;2022-12-19T16:04:20;8.50;99.90
39345;DHT22;25061;51.954;6.996;2022-12-19T16:06:46;8.70;99.90
39345;DHT22;25061;51.954;6.996;2022-12-19T16:09:20;8.60;99.90
39345;DHT22;25061;51.954;6.996;2022-12-19T16:11:48;8.60;99.90
39345;DHT22;25061;51.954;6.996;2022-12-19T16:14:14;8.60;99.90
39345;DHT22;25061;51.954;6.996;2022-12-19T16:16:40;8.50;99.90
39345;DHT22;25061;51.954;6.996;2022-12-19T16:21:52;8.40;99.90
39345;DHT22;25061;51.954;6.996;2022-12-19T16:24:18;8.30;99.90
39345;DHT22;25061;51.954;6.996;2022-12-19T16:26:50;8.40;99.90
39345;DHT22;25061;51.954;6.996;2022-12-19T16:29:23;8.30;99.90
39345;DHT22;25061;51.954;6.996;2022-12-19T16:31:49;8.30;99.90
39345;DHT22;25061;51.954;6.996;2022-12-19T16:34:17;8.20;99.90
39345;DHT22;25061;51.954;6.996;2022-12-19T16:36:47;8.10;99.90
39345;DHT22;25061;51.954;6.996;2022-12-19T16:39:13;8.10;99.90
39345;DHT22;25061;51.954;6.996;2022-12-19T16:41:39;8.10;99.90
39345;DHT22;25061;51.954;6.996;2022-12-19T16:44:14;8.20;99.90
39345;DHT22;25061;51.954;6.996;2022-12-19T16:46:41;8.10;99.90
39345;DHT22;25061;51.954;6.996;2022-12-19T16:49:14;8.20;99.90
39345;DHT22;25061;51.954;6.996;2022-12-19T16:51:41;8.20;99.90
39345;DHT22;25061;51.954;6.996;2022-12-19T16:54:07;8.20;99.90
39345;DHT22;25061;51.954;6.996;2022-12-19T16:56:46;8.20;99.90
39345;DHT22;25061;51.954;6.996;2022-12-19T16:59:18;8.20;99.90
39345;DHT22;25061;51.954;6.996;2022-12-19T17:01:45;8.20;99.90
39345;DHT22;25061;51.954;6.996;2022-12-19T17:04:16;8.30;99.90
39345;DHT22;25061;51.954;6.996;2022-12-19T17:06:42;8.30;99.90
39345;DHT22;25061;51.954;6.996;2022-12-19T17:09:13;8.30;99.90
39345;DHT22;25061;51.954;6.996;2022-12-19T17:11:40;8.30;99.90
39345;DHT22;25061;51.954;6.996;2022-12-19T17:14:16;8.40;99.90
39345;DHT22;25061;51.954;6.996;2022-12-19T17:16:43;8.40;99.90
39345;DHT22;25061;51.954;6.996;2022-12-19T17:19:25;8.30;99.90
39345;DHT22;25061;51.954;6.996;2022-12-19T17:21:51;8.30;99.90
39345;DHT22;25061;51.954;6.996;2022-12-19T17:24:17;8.40;99.90
39345;DHT22;25061;51.954;6.996;2022-12-19T17:26:43;8.40;99.90
39345;DHT22;25061;51.954;6.996;2022-12-19T17:29:10;8.30;99.90
39345;DHT22;25061;51.954;6.996;2022-12-19T17:31:36;8.40;99.90
39345;DHT22;25061;51.954;6.996;2022-12-19T17:34:30;8.30;99.90
39345;DHT22;25061;51.954;6.996;2022-12-19T17:36:56;8.40;99.90
39345;DHT22;25061;51.954;6.996;2022-12-19T17:39:24;8.40;99.90
39345;DHT22;25061;51.954;6.996;2022-12-19T17:41:51;8.40;99.90
39345;DHT22;25061;51.954;6.996;2022-12-19T17:44:17;8.40;99.90
39345;DHT22;25061;51.954;6.996;2022-12-19T17:46:43;8.50;99.90
39345;DHT22;25061;51.954;6.996;2022-12-19T17:49:20;8.50;99.90
39345;DHT22;25061;51.954;6.996;2022-12-19T17:51:49;8.50;99.90
39345;DHT22;25061;51.954;6.996;2022-12-19T17:54:17;8.60;99.90
39345;DHT22;25061;51.954;6.996;2022-12-19T17:56:42;8.60;99.90
39345;DHT22;25061;51.954;6.996;2022-12-19T17:59:08;8.60;99.90
39345;DHT22;25061;51.954;6.996;2022-12-19T18:01:33;8.60;99.90
39345;DHT22;25061;51.954;6.996;2022-12-19T18:04:00;8.50;99.90
39345;DHT22;25061;51.954;6.996;2022-12-19T18:06:25;8.50;99.90
39345;DHT22;25061;51.954;6.996;2022-12-19T18:08:52;8.50;99.90